Time;durP1;ratioP1;P1;durP2;ratioP2;P2;SDS_P1;SDS_P2;PMS_P1;PMS_P2;Temp;Humidity;BMP_temperature;BMP_pressure;BME280_temperature;BME280_humidity;BME280_pressure;Samples;Min_cycle;Max_cycle;Signal;HPM_P1;HPM_P2
2022/06/20 00:01:31;;;;;;;;;;;15.50;80.30;;;;;;4989584;28;19917;-80
2022/06/20 00:03:56;;;;;;;;;;;15.40;80.70;;;;;;4994710;28;19971;-80
2022/06/20 00:06:23;;;;;;;;;;;15.30;81.20;;;;;;5003167;28;19924;-81
2022/06/20 00:08:51;;;;;;;;;;;15.20;81.30;;;;;;4996860;28;20408;-82
2022/06/20 00:11:31;;;;;;;;;;;15.20;81.70;;;;;;4996959;28;19914;-81
2022/06/20 00:13:57;;;;;;;;;;;15.20;81.90;;;;;;4996085;28;19914;-82
2022/06/20 00:16:24;;;;;;;;;;;15.20;82.30;;;;;;5007290;28;19929;-80
2022/06/20 00:18:49;;;;;;;;;;;15.20;82.10;;;;;;4995355;28;20346;-79
2022/06/20 00:21:17;;;;;;;;;;;15.20;82.00;;;;;;4995055;28;19920;-81
2022/06/20 00:23:42;;;;;;;;;;;15.20;81.30;;;;;;4996414;28;20134;-79
2022/06/20 00:26:08;;;;;;;;;;;15.20;81.10;;;;;;4993860;28;20112;-82
2022/06/20 00:28:34;;;;;;;;;;;15.30;81.10;;;;;;5013485;28;19921;-80
2022/06/20 00:31:00;;;;;;;;;;;15.20;81.20;;;;;;4992037;28;19936;-80
2022/06/20 00:33:26;;;;;;;;;;;15.20;81.70;;;;;;4995697;28;19925;-80
2022/06/20 00:35:53;;;;;;;;;;;15.20;81.60;;;;;;4996661;28;19920;-81
2022/06/20 00:38:20;;;;;;;;;;;15.10;81.30;;;;;;5013628;28;19991;-82
2022/06/20 00:40:47;;;;;;;;;;;15.10;81.30;;;;;;4995055;28;19913;-81
2022/06/20 00:43:24;;;;;;;;;;;15.10;81.00;;;;;;4995714;28;19913;-81
2022/06/20 00:45:51;;;;;;;;;;;15.20;81.30;;;;;;5006140;28;19917;-80
2022/06/20 00:48:23;;;;;;;;;;;15.30;81.30;;;;;;4995330;28;19914;-81
2022/06/20 00:50:51;;;;;;;;;;;15.30;81.70;;;;;;5014638;28;19924;-81
2022/06/20 00:53:19;;;;;;;;;;;15.30;81.60;;;;;;5017483;28;19913;-81
2022/06/20 00:55:48;;;;;;;;;;;15.40;81.10;;;;;;4994213;28;20048;-81
2022/06/20 00:58:24;;;;;;;;;;;15.40;80.10;;;;;;5011691;28;19938;-80
2022/06/20 01:00:50;;;;;;;;;;;15.40;80.10;;;;;;4991690;28;19956;-80
2022/06/20 01:03:23;;;;;;;;;;;15.30;80.80;;;;;;4991172;28;20587;-81
2022/06/20 01:05:53;;;;;;;;;;;15.40;81.70;;;;;;5009394;28;20321;-79
2022/06/20 01:08:23;;;;;;;;;;;15.50;80.10;;;;;;4991007;28;19925;-80
2022/06/20 01:10:54;;;;;;;;;;;15.40;81.30;;;;;;4994054;28;19917;-80
2022/06/20 01:13:21;;;;;;;;;;;15.30;80.60;;;;;;4997533;28;20289;-80
2022/06/20 01:15:49;;;;;;;;;;;15.30;80.50;;;;;;4991900;28;19929;-80
2022/06/20 01:18:20;;;;;;;;;;;15.30;81.30;;;;;;4993852;28;20055;-81
2022/06/20 01:20:46;;;;;;;;;;;15.30;81.40;;;;;;4988521;28;19922;-81
2022/06/20 01:23:20;;;;;;;;;;;15.20;81.70;;;;;;4996707;28;20009;-80
2022/06/20 01:25:46;;;;;;;;;;;15.30;81.10;;;;;;4995721;28;20004;-80
2022/06/20 01:28:14;;;;;;;;;;;15.30;81.50;;;;;;5010238;28;19956;-80
2022/06/20 01:30:41;;;;;;;;;;;15.20;82.10;;;;;;4995434;28;20273;-80
2022/06/20 01:33:07;;;;;;;;;;;15.40;81.70;;;;;;5008732;28;19914;-81
2022/06/20 01:38:17;;;;;;;;;;;15.30;81.80;;;;;;5011424;28;20258;-81
2022/06/20 01:42:18;;;;;;;;;;;15.30;82.10;;;;;;4996226;28;19913;-82
2022/06/20 01:43:30;;;;;;;;;;;15.50;81.00;;;;;;5014397;28;20633;-83
2022/06/20 01:46:00;;;;;;;;;;;15.40;81.30;;;;;;5008484;28;19914;-81
2022/06/20 01:48:30;;;;;;;;;;;15.50;82.40;;;;;;5010963;28;20039;-82
2022/06/20 01:50:56;;;;;;;;;;;15.60;82.10;;;;;;4997253;28;19964;-80
2022/06/20 01:53:23;;;;;;;;;;;15.50;82.20;;;;;;5011047;28;20306;-80
2022/06/20 01:55:50;;;;;;;;;;;15.50;82.00;;;;;;5014572;28;19944;-83
2022/06/20 01:58:20;;;;;;;;;;;15.50;82.20;;;;;;4998588;28;19921;-84
2022/06/20 02:00:45;;;;;;;;;;;15.50;83.50;;;;;;5016102;28;19918;-83
2022/06/20 02:03:17;;;;;;;;;;;15.40;83.70;;;;;;5008233;28;19913;-88
2022/06/20 02:05:43;;;;;;;;;;;15.40;84.20;;;;;;5011459;28;19921;-89
2022/06/20 02:08:09;;;;;;;;;;;15.40;84.80;;;;;;5014322;28;19957;-87
2022/06/20 02:10:37;;;;;;;;;;;15.40;83.80;;;;;;5016540;28;19922;-84
2022/06/20 02:13:03;;;;;;;;;;;15.30;84.70;;;;;;5007961;28;19913;-83
2022/06/20 02:15:31;;;;;;;;;;;15.30;84.80;;;;;;5014513;28;19927;-82
2022/06/20 02:17:57;;;;;;;;;;;15.40;84.60;;;;;;5014768;28;19914;-83
2022/06/20 02:20:28;;;;;;;;;;;15.40;85.00;;;;;;4991247;28;19913;-83
2022/06/20 02:22:56;;;;;;;;;;;15.40;85.90;;;;;;4997202;28;19913;-83
2022/06/20 02:25:24;;;;;;;;;;;15.30;86.50;;;;;;4996936;28;19983;-85
2022/06/20 02:27:51;;;;;;;;;;;15.30;86.60;;;;;;4992534;28;20348;-85
2022/06/20 02:30:16;;;;;;;;;;;15.20;86.60;;;;;;4990519;28;19944;-84
2022/06/20 02:32:58;;;;;;;;;;;15.10;86.20;;;;;;4995013;28;19917;-83
2022/06/20 02:35:24;;;;;;;;;;;15.20;86.20;;;;;;5003680;28;19970;-83
2022/06/20 02:37:50;;;;;;;;;;;15.00;86.60;;;;;;5008958;28;19916;-83
2022/06/20 02:40:17;;;;;;;;;;;15.00;87.40;;;;;;5001870;28;19918;-85
2022/06/20 02:42:43;;;;;;;;;;;15.00;86.80;;;;;;5018177;28;19975;-84
2022/06/20 02:45:11;;;;;;;;;;;15.00;87.00;;;;;;5018842;28;19918;-85
2022/06/20 02:47:41;;;;;;;;;;;14.90;87.50;;;;;;4998497;28;20103;-82
2022/06/20 02:50:08;;;;;;;;;;;14.80;87.70;;;;;;4994764;28;19913;-82
2022/06/20 02:52:37;;;;;;;;;;;14.90;87.70;;;;;;5000913;28;19924;-82
2022/06/20 02:55:03;;;;;;;;;;;14.90;87.30;;;;;;4995039;28;19910;-83
2022/06/20 02:57:31;;;;;;;;;;;14.80;86.30;;;;;;5003870;28;19922;-81
2022/06/20 02:59:58;;;;;;;;;;;14.80;86.10;;;;;;5005024;28;19940;-84
2022/06/20 03:02:25;;;;;;;;;;;14.70;86.80;;;;;;5002503;28;19925;-84
2022/06/20 03:04:51;;;;;;;;;;;14.60;86.00;;;;;;5008830;28;19910;-82
2022/06/20 03:07:20;;;;;;;;;;;14.50;86.40;;;;;;5018299;28;19921;-80
2022/06/20 03:09:47;;;;;;;;;;;14.50;86.90;;;;;;5012654;28;19909;-82
2022/06/20 03:12:14;;;;;;;;;;;14.30;86.70;;;;;;5009621;28;19989;-82
2022/06/20 03:14:46;;;;;;;;;;;14.20;86.70;;;;;;5009064;28;19944;-85
2022/06/20 03:17:12;;;;;;;;;;;14.10;86.80;;;;;;5025805;28;19917;-84
2022/06/20 03:19:40;;;;;;;;;;;14.10;86.70;;;;;;5014454;28;19925;-83
2022/06/20 03:22:08;;;;;;;;;;;14.00;87.30;;;;;;5029226;28;19914;-85
2022/06/20 03:24:35;;;;;;;;;;;14.00;87.90;;;;;;5025728;28;19928;-82
2022/06/20 03:27:01;;;;;;;;;;;14.00;86.40;;;;;;5008717;28;19917;-82
2022/06/20 03:29:27;;;;;;;;;;;13.90;86.70;;;;;;5005228;28;19917;-85
2022/06/20 03:31:53;;;;;;;;;;;13.90;87.60;;;;;;5002798;28;19921;-84
2022/06/20 03:34:21;;;;;;;;;;;14.00;86.50;;;;;;5020545;28;20044;-87
2022/06/20 03:36:47;;;;;;;;;;;14.00;86.70;;;;;;5005510;28;20263;-86
2022/06/20 03:39:13;;;;;;;;;;;14.00;86.20;;;;;;5007368;28;19916;-84
2022/06/20 03:41:39;;;;;;;;;;;13.90;86.20;;;;;;5030804;28;19922;-84
2022/06/20 03:44:19;;;;;;;;;;;13.80;86.00;;;;;;5005570;28;19914;-84
2022/06/20 03:46:53;;;;;;;;;;;13.90;86.30;;;;;;5032013;23;19944;-80
2022/06/20 03:49:27;;;;;;;;;;;13.80;87.00;;;;;;5016819;28;19913;-81
2022/06/20 03:52:00;;;;;;;;;;;13.90;85.90;;;;;;5012002;28;19919;-80
2022/06/20 03:54:40;;;;;;;;;;;13.80;87.20;;;;;;5030489;28;19921;-81
2022/06/20 03:57:16;;;;;;;;;;;14.00;85.60;;;;;;5004863;28;19921;-80
2022/06/20 03:59:43;;;;;;;;;;;13.90;86.30;;;;;;5024963;28;19927;-80
2022/06/20 04:02:13;;;;;;;;;;;13.90;87.00;;;;;;5028459;28;20115;-80
2022/06/20 04:04:48;;;;;;;;;;;13.90;86.10;;;;;;5012872;28;19949;-81
2022/06/20 04:07:26;;;;;;;;;;;14.10;85.80;;;;;;5023032;28;20063;-81
2022/06/20 04:12:54;;;;;;;;;;;14.10;86.80;;;;;;5013121;28;20336;-80
2022/06/20 04:15:29;;;;;;;;;;;14.10;85.00;;;;;;5002879;28;19949;-80
2022/06/20 04:20:49;;;;;;;;;;;14.20;84.90;;;;;;5015207;28;19928;-81
2022/06/20 04:23:21;;;;;;;;;;;14.10;85.00;;;;;;5000829;28;19917;-80
2022/06/20 04:25:52;;;;;;;;;;;14.10;84.80;;;;;;4998231;28;19917;-80
2022/06/20 04:28:24;;;;;;;;;;;14.10;84.90;;;;;;5014737;28;19943;-80
2022/06/20 04:30:52;;;;;;;;;;;14.20;85.00;;;;;;5019794;28;20403;-82
2022/06/20 04:33:19;;;;;;;;;;;14.10;85.50;;;;;;5011320;28;20139;-82
2022/06/20 04:36:10;;;;;;;;;;;14.20;84.80;;;;;;5010905;28;19913;-83
2022/06/20 04:38:40;;;;;;;;;;;14.20;85.60;;;;;;5012606;28;19991;-83
2022/06/20 04:41:12;;;;;;;;;;;14.20;85.40;;;;;;5015437;28;20021;-82
2022/06/20 04:43:41;;;;;;;;;;;14.20;85.50;;;;;;4996718;28;20524;-82
2022/06/20 04:46:15;;;;;;;;;;;14.20;85.70;;;;;;5009540;28;19926;-80
2022/06/20 04:48:41;;;;;;;;;;;14.30;86.30;;;;;;4985644;28;19917;-83
2022/06/20 04:51:08;;;;;;;;;;;14.30;86.00;;;;;;5010041;28;19968;-82
2022/06/20 04:53:35;;;;;;;;;;;14.30;86.40;;;;;;5011070;28;19946;-81
2022/06/20 04:56:05;;;;;;;;;;;14.40;85.70;;;;;;5008127;28;20008;-82
2022/06/20 04:58:38;;;;;;;;;;;14.50;85.60;;;;;;4994323;28;19926;-82
2022/06/20 05:01:06;;;;;;;;;;;14.50;85.60;;;;;;4994201;28;19929;-81
2022/06/20 05:03:36;;;;;;;;;;;14.60;85.80;;;;;;4995966;28;19917;-82
2022/06/20 05:06:04;;;;;;;;;;;14.60;85.80;;;;;;4991509;28;19913;-81
2022/06/20 05:08:31;;;;;;;;;;;14.70;85.60;;;;;;5002078;28;19918;-81
2022/06/20 05:11:15;;;;;;;;;;;14.70;85.80;;;;;;5002857;28;19914;-83
2022/06/20 05:13:43;;;;;;;;;;;14.60;85.70;;;;;;4999304;28;20007;-83
2022/06/20 05:16:14;;;;;;;;;;;14.60;85.80;;;;;;4996963;28;20039;-84
2022/06/20 05:18:42;;;;;;;;;;;14.50;85.90;;;;;;4994062;28;20012;-83
2022/06/20 05:21:31;;;;;;;;;;;14.60;86.20;;;;;;4997468;28;19921;-83
2022/06/20 05:24:02;;;;;;;;;;;14.70;85.90;;;;;;4990910;28;19913;-83
2022/06/20 05:26:33;;;;;;;;;;;14.60;85.90;;;;;;4996743;28;19936;-84
2022/06/20 05:29:01;;;;;;;;;;;14.70;85.80;;;;;;4994816;28;19941;-84
2022/06/20 05:31:36;;;;;;;;;;;14.70;85.50;;;;;;5004342;28;20014;-84
2022/06/20 05:34:05;;;;;;;;;;;14.80;85.40;;;;;;4976521;28;19924;-84
2022/06/20 05:36:43;;;;;;;;;;;14.80;84.90;;;;;;5001914;28;19910;-82
2022/06/20 05:39:21;;;;;;;;;;;14.80;84.60;;;;;;5011238;28;19913;-84
2022/06/20 05:41:47;;;;;;;;;;;14.80;84.40;;;;;;5005161;28;19913;-85
2022/06/20 05:44:12;;;;;;;;;;;14.80;84.30;;;;;;5001029;28;19914;-82
2022/06/20 05:46:42;;;;;;;;;;;14.90;84.40;;;;;;4999287;28;19913;-86
2022/06/20 05:49:11;;;;;;;;;;;14.80;83.90;;;;;;4995675;28;19924;-85
2022/06/20 05:51:39;;;;;;;;;;;14.70;83.00;;;;;;5008610;28;19913;-84
2022/06/20 05:54:09;;;;;;;;;;;14.60;82.80;;;;;;4994353;28;19932;-82
2022/06/20 05:56:37;;;;;;;;;;;14.60;82.60;;;;;;4983499;28;19952;-82
2022/06/20 05:59:03;;;;;;;;;;;14.60;83.00;;;;;;5010614;28;19917;-83
2022/06/20 06:01:33;;;;;;;;;;;14.50;83.90;;;;;;5024687;28;19930;-82
2022/06/20 06:03:59;;;;;;;;;;;14.60;84.10;;;;;;4999286;28;19917;-83
2022/06/20 06:06:28;;;;;;;;;;;14.60;84.90;;;;;;5032319;28;19941;-83
2022/06/20 06:08:59;;;;;;;;;;;14.60;85.30;;;;;;5013406;28;19965;-83
2022/06/20 06:11:30;;;;;;;;;;;14.50;84.40;;;;;;5000994;28;19919;-83
2022/06/20 06:13:56;;;;;;;;;;;14.60;84.80;;;;;;5008574;28;19926;-84
2022/06/20 06:19:13;;;;;;;;;;;14.60;84.60;;;;;;5011128;28;20044;-85
2022/06/20 06:21:39;;;;;;;;;;;14.80;83.60;;;;;;5000241;28;20324;-84
2022/06/20 06:24:05;;;;;;;;;;;14.90;82.50;;;;;;4998330;28;19913;-84
2022/06/20 06:26:31;;;;;;;;;;;14.90;82.10;;;;;;5010388;28;19925;-85
2022/06/20 06:28:57;;;;;;;;;;;15.00;81.40;;;;;;4992941;28;19921;-86
2022/06/20 06:31:28;;;;;;;;;;;15.00;82.50;;;;;;5010718;28;19920;-85
2022/06/20 06:33:57;;;;;;;;;;;15.00;82.50;;;;;;4998165;28;19913;-88
2022/06/20 06:36:27;;;;;;;;;;;15.10;83.30;;;;;;4995100;28;20490;-87
2022/06/20 06:39:03;;;;;;;;;;;15.40;83.70;;;;;;5011588;28;20296;-88
2022/06/20 06:41:35;;;;;;;;;;;15.50;83.40;;;;;;5033767;28;19922;-85
2022/06/20 06:44:02;;;;;;;;;;;15.60;83.20;;;;;;4995436;28;19914;-83
2022/06/20 06:46:31;;;;;;;;;;;15.60;83.20;;;;;;4995679;28;19924;-84
2022/06/20 06:49:08;;;;;;;;;;;15.60;83.70;;;;;;4982948;28;20000;-86
2022/06/20 06:51:33;;;;;;;;;;;15.60;81.90;;;;;;5006819;28;19914;-83
2022/06/20 06:54:02;;;;;;;;;;;15.60;79.20;;;;;;4996157;28;20016;-84
2022/06/20 06:56:34;;;;;;;;;;;15.50;80.90;;;;;;5005776;28;19928;-83
2022/06/20 06:59:02;;;;;;;;;;;15.50;80.90;;;;;;5027236;28;19988;-84
2022/06/20 07:01:31;;;;;;;;;;;15.60;80.50;;;;;;5033520;28;19918;-84
2022/06/20 07:04:16;;;;;;;;;;;15.60;78.30;;;;;;5025057;28;19906;-84
2022/06/20 07:06:55;;;;;;;;;;;15.60;79.00;;;;;;5021923;28;19917;-82
2022/06/20 07:09:26;;;;;;;;;;;15.70;79.50;;;;;;5015925;28;19914;-83
2022/06/20 07:12:00;;;;;;;;;;;15.90;79.00;;;;;;5002168;28;19997;-83
2022/06/20 07:14:26;;;;;;;;;;;15.80;79.80;;;;;;5020543;28;19972;-82
2022/06/20 07:17:00;;;;;;;;;;;16.00;79.30;;;;;;5018232;28;19932;-82
2022/06/20 07:19:26;;;;;;;;;;;16.10;79.00;;;;;;5026524;28;19922;-83
2022/06/20 07:21:52;;;;;;;;;;;16.10;79.70;;;;;;5016090;28;19921;-84
2022/06/20 07:24:19;;;;;;;;;;;16.20;79.90;;;;;;5003964;28;19914;-83
2022/06/20 07:26:52;;;;;;;;;;;16.20;78.30;;;;;;5018381;28;20008;-83
2022/06/20 07:29:23;;;;;;;;;;;16.10;77.70;;;;;;5015271;28;19924;-83
2022/06/20 07:31:50;;;;;;;;;;;16.10;78.00;;;;;;4996153;28;19913;-83
2022/06/20 07:34:32;;;;;;;;;;;16.20;76.50;;;;;;4994227;28;20004;-86
2022/06/20 07:37:05;;;;;;;;;;;16.10;76.60;;;;;;4997068;28;19914;-86
2022/06/20 07:39:40;;;;;;;;;;;16.30;78.00;;;;;;5001218;28;20096;-86
2022/06/20 07:42:09;;;;;;;;;;;16.40;74.40;;;;;;5012587;28;19920;-82
2022/06/20 07:44:40;;;;;;;;;;;16.30;74.20;;;;;;5026275;28;20430;-81
2022/06/20 07:47:20;;;;;;;;;;;16.20;74.60;;;;;;5017298;28;19917;-82
2022/06/20 07:49:55;;;;;;;;;;;16.30;72.80;;;;;;5004917;28;19916;-82
2022/06/20 07:52:29;;;;;;;;;;;16.20;74.50;;;;;;5006747;28;19997;-81
2022/06/20 07:54:58;;;;;;;;;;;16.10;74.00;;;;;;5017523;28;19910;-79
2022/06/20 07:57:30;;;;;;;;;;;16.00;76.60;;;;;;5014323;28;19928;-81
2022/06/20 07:59:59;;;;;;;;;;;16.40;72.10;;;;;;4999423;28;19913;-83
2022/06/20 08:02:32;;;;;;;;;;;16.40;74.00;;;;;;5017185;28;19914;-82
2022/06/20 08:04:58;;;;;;;;;;;16.60;74.40;;;;;;5008041;28;19939;-81
2022/06/20 08:07:30;;;;;;;;;;;16.60;74.60;;;;;;5006111;28;19996;-80
2022/06/20 08:10:07;;;;;;;;;;;16.60;75.20;;;;;;5010077;28;19921;-80
2022/06/20 08:12:44;;;;;;;;;;;16.40;75.60;;;;;;5013560;28;19917;-80
2022/06/20 08:15:14;;;;;;;;;;;16.20;74.40;;;;;;5006730;28;19924;-80
2022/06/20 08:17:39;;;;;;;;;;;16.10;73.30;;;;;;5018306;28;19992;-80
2022/06/20 08:20:05;;;;;;;;;;;16.10;73.90;;;;;;5018646;28;19925;-81
2022/06/20 08:23:00;;;;;;;;;;;16.10;73.10;;;;;;5018792;28;20111;-81
2022/06/20 08:25:55;;;;;;;;;;;15.90;72.60;;;;;;4989482;28;20011;-83
2022/06/20 08:28:23;;;;;;;;;;;16.00;75.10;;;;;;5008217;28;19909;-83
2022/06/20 08:30:50;;;;;;;;;;;16.10;74.80;;;;;;5013223;28;19972;-83
2022/06/20 08:33:33;;;;;;;;;;;16.40;71.40;;;;;;4999074;28;19999;-83
2022/06/20 08:36:08;;;;;;;;;;;16.60;73.90;;;;;;5011304;28;19913;-85
2022/06/20 08:38:52;;;;;;;;;;;16.80;70.10;;;;;;4995121;28;20451;-83
2022/06/20 08:41:30;;;;;;;;;;;17.10;67.20;;;;;;4995746;28;19964;-83
2022/06/20 08:44:06;;;;;;;;;;;17.10;68.90;;;;;;5016735;28;19992;-84
2022/06/20 08:46:41;;;;;;;;;;;17.00;71.60;;;;;;5014534;28;19932;-84
2022/06/20 08:49:16;;;;;;;;;;;17.10;68.30;;;;;;5002380;28;20024;-83
2022/06/20 08:51:41;;;;;;;;;;;17.10;69.80;;;;;;5000112;28;19917;-85
2022/06/20 08:54:21;;;;;;;;;;;16.90;69.50;;;;;;5001953;28;19913;-84
2022/06/20 08:56:56;;;;;;;;;;;16.80;67.10;;;;;;5014986;28;19933;-84
2022/06/20 08:59:32;;;;;;;;;;;16.60;68.30;;;;;;5016698;28;20364;-85
2022/06/20 09:01:57;;;;;;;;;;;16.40;68.60;;;;;;5012130;28;20295;-84
2022/06/20 09:04:41;;;;;;;;;;;16.50;70.30;;;;;;5010761;28;19917;-84
2022/06/20 09:07:10;;;;;;;;;;;16.50;69.50;;;;;;5000913;28;19943;-84
2022/06/20 09:10:00;;;;;;;;;;;16.60;68.50;;;;;;5009829;28;19925;-84
2022/06/20 09:12:34;;;;;;;;;;;16.80;68.50;;;;;;5010581;28;19965;-85
2022/06/20 09:15:19;;;;;;;;;;;17.00;65.30;;;;;;5009265;28;19918;-85
2022/06/20 09:17:53;;;;;;;;;;;17.10;66.60;;;;;;5009445;28;19910;-85
2022/06/20 09:20:29;;;;;;;;;;;17.60;63.90;;;;;;5008958;28;19913;-85
2022/06/20 09:23:03;;;;;;;;;;;17.60;60.50;;;;;;4996549;28;20337;-83
2022/06/20 09:25:47;;;;;;;;;;;17.70;60.10;;;;;;5011274;28;19924;-85
2022/06/20 09:28:32;;;;;;;;;;;17.70;60.40;;;;;;4997700;28;19913;-84
2022/06/20 09:31:04;;;;;;;;;;;17.80;63.30;;;;;;5030737;28;19926;-84
2022/06/20 09:33:48;;;;;;;;;;;17.80;61.30;;;;;;5016757;28;19949;-85
2022/06/20 09:36:32;;;;;;;;;;;18.00;59.50;;;;;;5004517;28;19918;-84
2022/06/20 09:39:21;;;;;;;;;;;18.00;59.00;;;;;;5005026;28;19913;-85
2022/06/20 09:41:53;;;;;;;;;;;17.80;61.70;;;;;;5007595;28;20008;-90
2022/06/20 09:44:28;;;;;;;;;;;17.90;59.20;;;;;;5005406;28;19917;-87
2022/06/20 09:47:25;;;;;;;;;;;;;;;;;;;;;
2022/06/20 09:53:09;;;;;;;;;;;18.00;58.90;;;;;;4993356;28;19915;-85
2022/06/20 09:56:03;;;;;;;;;;;18.20;58.40;;;;;;5011941;28;19920;-87
2022/06/20 09:58:47;;;;;;;;;;;18.50;55.30;;;;;;4948237;28;19918;-84
2022/06/20 10:01:18;;;;;;;;;;;18.60;56.60;;;;;;5004836;28;20011;-83
2022/06/20 10:03:46;;;;;;;;;;;18.50;56.30;;;;;;5012605;28;19913;-83
2022/06/20 10:06:36;;;;;;;;;;;18.60;56.80;;;;;;5011052;28;20027;-83
2022/06/20 10:09:14;;;;;;;;;;;18.60;56.10;;;;;;5010449;28;20296;-82
2022/06/20 10:11:42;;;;;;;;;;;18.60;56.70;;;;;;4992441;28;19921;-82
2022/06/20 10:14:19;;;;;;;;;;;18.50;57.10;;;;;;5002659;28;19914;-87
2022/06/20 10:16:48;;;;;;;;;;;18.40;57.80;;;;;;4993299;28;19913;-86
2022/06/20 10:19:43;;;;;;;;;;;18.40;56.60;;;;;;5006963;28;20007;-80
2022/06/20 10:22:15;;;;;;;;;;;18.40;58.90;;;;;;5015712;28;19971;-81
2022/06/20 10:24:57;;;;;;;;;;;18.70;55.30;;;;;;5008643;28;20352;-82
2022/06/20 10:27:45;;;;;;;;;;;18.80;55.20;;;;;;5006353;28;19952;-81
2022/06/20 10:30:17;;;;;;;;;;;19.10;54.80;;;;;;5014509;28;19917;-81
2022/06/20 10:32:54;;;;;;;;;;;19.20;53.40;;;;;;5028844;28;19965;-85
2022/06/20 10:35:27;;;;;;;;;;;19.30;53.70;;;;;;5032490;28;19901;-83
2022/06/20 10:38:07;;;;;;;;;;;19.30;53.50;;;;;;5028325;28;19921;-82
2022/06/20 10:40:41;;;;;;;;;;;19.20;54.70;;;;;;5030011;28;19921;-82
2022/06/20 10:43:06;;;;;;;;;;;19.30;52.90;;;;;;5010847;28;20012;-83
2022/06/20 10:45:32;;;;;;;;;;;19.10;53.30;;;;;;4997364;28;19995;-82
2022/06/20 10:48:09;;;;;;;;;;;18.90;52.80;;;;;;4996301;28;19925;-83
2022/06/20 10:50:45;;;;;;;;;;;18.80;53.60;;;;;;4991328;28;19914;-83
2022/06/20 10:53:17;;;;;;;;;;;18.80;55.60;;;;;;5010925;28;19924;-83
2022/06/20 10:55:51;;;;;;;;;;;18.80;54.00;;;;;;5012916;28;19914;-84
2022/06/20 10:58:23;;;;;;;;;;;19.00;52.30;;;;;;4994786;28;19917;-84
2022/06/20 11:00:58;;;;;;;;;;;19.00;53.30;;;;;;4987792;28;19924;-81
2022/06/20 11:03:30;;;;;;;;;;;19.30;54.30;;;;;;5011772;28;19913;-81
2022/06/20 11:06:07;;;;;;;;;;;19.60;49.20;;;;;;4991327;28;20281;-82
2022/06/20 11:08:33;;;;;;;;;;;19.60;50.90;;;;;;4990476;28;19914;-84
2022/06/20 11:11:18;;;;;;;;;;;19.80;50.00;;;;;;4990996;28;19925;-82
2022/06/20 11:13:46;;;;;;;;;;;20.00;48.80;;;;;;5008104;28;20283;-81
2022/06/20 11:16:19;;;;;;;;;;;19.90;49.40;;;;;;5015409;28;19898;-84
2022/06/20 11:18:50;;;;;;;;;;;19.90;51.00;;;;;;5023871;28;19925;-85
2022/06/20 11:21:25;;;;;;;;;;;19.80;50.80;;;;;;5010302;28;19936;-84
2022/06/20 11:24:08;;;;;;;;;;;19.80;51.40;;;;;;4991886;28;19928;-86
2022/06/20 11:26:46;;;;;;;;;;;20.00;50.00;;;;;;5006092;28;19909;-85
2022/06/20 11:29:17;;;;;;;;;;;19.90;48.70;;;;;;5010857;28;19950;-83
2022/06/20 11:32:02;;;;;;;;;;;20.00;47.50;;;;;;4998183;28;19955;-82
2022/06/20 11:34:57;;;;;;;;;;;20.00;49.00;;;;;;4997130;28;20363;-83
2022/06/20 11:37:51;;;;;;;;;;;20.10;47.20;;;;;;4993356;28;20384;-82
2022/06/20 11:40:42;;;;;;;;;;;19.90;48.50;;;;;;4994706;28;20408;-85
2022/06/20 11:43:43;;;;;;;;;;;19.80;48.70;;;;;;4951490;28;19919;-86
2022/06/20 11:46:18;;;;;;;;;;;19.70;49.30;;;;;;4980855;28;19914;-85
2022/06/20 11:48:46;;;;;;;;;;;19.90;48.10;;;;;;4994426;28;19918;-86
2022/06/20 11:51:15;;;;;;;;;;;20.00;48.30;;;;;;5012536;28;20258;-84
2022/06/20 11:53:48;;;;;;;;;;;20.10;47.30;;;;;;5006546;28;19997;-87
2022/06/20 11:56:29;;;;;;;;;;;20.00;48.40;;;;;;5012832;28;20292;-85
2022/06/20 11:58:55;;;;;;;;;;;20.10;46.80;;;;;;5011705;28;20327;-85
2022/06/20 12:01:26;;;;;;;;;;;20.10;47.30;;;;;;4994862;28;19914;-85
2022/06/20 12:03:54;;;;;;;;;;;20.00;46.70;;;;;;5012301;28;19925;-84
2022/06/20 12:06:23;;;;;;;;;;;20.20;47.90;;;;;;5002283;28;19980;-85
2022/06/20 12:08:58;;;;;;;;;;;20.40;47.60;;;;;;4995073;28;19920;-83
2022/06/20 12:11:30;;;;;;;;;;;20.50;47.70;;;;;;5008935;28;20300;-83
2022/06/20 12:14:08;;;;;;;;;;;20.60;45.00;;;;;;5012908;28;19910;-84
2022/06/20 12:16:48;;;;;;;;;;;20.80;45.80;;;;;;5013819;28;19932;-83
2022/06/20 12:24:45;;;;;;;;;;;20.90;46.60;;;;;;5013165;28;20379;-83
2022/06/20 12:27:12;;;;;;;;;;;20.70;47.50;;;;;;5008292;28;19975;-84
2022/06/20 12:29:37;;;;;;;;;;;20.60;46.80;;;;;;5001821;28;20285;-84
2022/06/20 12:32:05;;;;;;;;;;;20.40;48.70;;;;;;5006767;28;19914;-84
2022/06/20 12:34:34;;;;;;;;;;;20.10;49.10;;;;;;4995239;28;19914;-84
2022/06/20 12:37:04;;;;;;;;;;;20.10;49.80;;;;;;4999774;28;19921;-84
2022/06/20 12:39:33;;;;;;;;;;;20.40;48.50;;;;;;4991686;28;19918;-84
2022/06/20 12:42:19;;;;;;;;;;;20.30;49.30;;;;;;4994929;28;19967;-84
2022/06/20 12:45:03;;;;;;;;;;;20.40;49.30;;;;;;4976029;28;20406;-84
2022/06/20 12:47:42;;;;;;;;;;;20.40;47.70;;;;;;5000743;28;20214;-85
2022/06/20 12:50:17;;;;;;;;;;;20.50;47.30;;;;;;5011472;28;19917;-85
2022/06/20 12:52:55;;;;;;;;;;;20.90;47.30;;;;;;5000991;28;19922;-84
2022/06/20 12:55:24;;;;;;;;;;;21.00;48.30;;;;;;5007510;28;19914;-85
2022/06/20 12:58:04;;;;;;;;;;;21.00;47.10;;;;;;4982895;28;19964;-86
2022/06/20 13:00:46;;;;;;;;;;;20.80;47.80;;;;;;5013063;28;19997;-84
2022/06/20 13:03:17;;;;;;;;;;;21.00;47.70;;;;;;5011347;28;19905;-86
2022/06/20 13:05:49;;;;;;;;;;;21.10;47.00;;;;;;4975490;28;20139;-85
2022/06/20 13:08:27;;;;;;;;;;;21.10;47.20;;;;;;4975906;28;20247;-84
2022/06/20 13:10:52;;;;;;;;;;;21.40;48.70;;;;;;4965759;28;19968;-86
2022/06/20 13:13:18;;;;;;;;;;;21.40;48.00;;;;;;4975588;28;19917;-83
2022/06/20 13:15:51;;;;;;;;;;;21.20;45.20;;;;;;4978788;28;19952;-85
2022/06/20 13:18:35;;;;;;;;;;;21.10;46.40;;;;;;4961326;28;20450;-83
2022/06/20 13:21:06;;;;;;;;;;;21.10;46.00;;;;;;4967892;28;19964;-84
2022/06/20 13:23:50;;;;;;;;;;;21.10;46.20;;;;;;4972164;28;20036;-84
2022/06/20 13:26:19;;;;;;;;;;;20.90;46.90;;;;;;4990020;28;19916;-83
2022/06/20 13:28:47;;;;;;;;;;;20.80;46.60;;;;;;4994072;28;19909;-85
2022/06/20 13:31:15;;;;;;;;;;;20.70;47.30;;;;;;4999075;28;19909;-86
2022/06/20 13:33:46;;;;;;;;;;;20.60;47.40;;;;;;5006234;28;19999;-84
2022/06/20 13:36:29;;;;;;;;;;;20.70;47.90;;;;;;4987595;28;20060;-84
2022/06/20 13:39:13;;;;;;;;;;;20.90;49.20;;;;;;4968023;28;20032;-83
2022/06/20 13:41:48;;;;;;;;;;;21.00;45.80;;;;;;4993228;28;19921;-84
2022/06/20 13:44:13;;;;;;;;;;;21.00;48.20;;;;;;4962338;28;19910;-84
2022/06/20 13:46:51;;;;;;;;;;;21.20;45.70;;;;;;4967919;28;19921;-84
2022/06/20 13:49:16;;;;;;;;;;;21.10;45.90;;;;;;4970375;28;19925;-83
2022/06/20 13:51:42;;;;;;;;;;;21.00;45.90;;;;;;4951332;28;19909;-84
2022/06/20 13:54:10;;;;;;;;;;;20.90;46.50;;;;;;4948091;28;20064;-85
2022/06/20 13:56:38;;;;;;;;;;;21.00;45.90;;;;;;4951370;28;20559;-82
2022/06/20 13:59:13;;;;;;;;;;;21.10;45.80;;;;;;4952224;28;20498;-85
2022/06/20 14:01:53;;;;;;;;;;;21.10;45.70;;;;;;4989724;28;20444;-86
2022/06/20 14:04:20;;;;;;;;;;;21.40;45.00;;;;;;5012814;28;19909;-86
2022/06/20 14:06:48;;;;;;;;;;;21.60;43.80;;;;;;5033652;28;19921;-84
2022/06/20 14:09:17;;;;;;;;;;;21.50;42.90;;;;;;5020415;28;19914;-84
2022/06/20 14:11:47;;;;;;;;;;;21.40;43.60;;;;;;4978284;28;19940;-84
2022/06/20 14:14:22;;;;;;;;;;;21.10;43.70;;;;;;4966259;28;19909;-85
2022/06/20 14:16:48;;;;;;;;;;;20.90;44.00;;;;;;4968743;28;20546;-84
2022/06/20 14:19:18;;;;;;;;;;;20.70;44.20;;;;;;4989315;28;20465;-84
2022/06/20 14:21:45;;;;;;;;;;;20.50;45.70;;;;;;4987538;28;19910;-85
2022/06/20 14:24:23;;;;;;;;;;;20.50;44.10;;;;;;4967969;28;20146;-87
2022/06/20 14:27:01;;;;;;;;;;;20.60;44.30;;;;;;4954450;28;20344;-84
2022/06/20 14:29:28;;;;;;;;;;;20.60;44.30;;;;;;4965324;28;20009;-89
2022/06/20 14:32:09;;;;;;;;;;;20.80;45.20;;;;;;4961583;28;19910;-83
2022/06/20 14:37:48;;;;;;;;;;;21.00;43.30;;;;;;4975856;28;20521;-87
2022/06/20 14:40:24;;;;;;;;;;;21.10;43.20;;;;;;4951114;28;19976;-87
2022/06/20 14:43:13;;;;;;;;;;;21.10;42.60;;;;;;4951827;28;19913;-84
2022/06/20 14:45:47;;;;;;;;;;;21.10;44.10;;;;;;4965264;28;19928;-85
2022/06/20 14:48:15;;;;;;;;;;;21.20;42.50;;;;;;4987968;28;19917;-83
2022/06/20 14:50:47;;;;;;;;;;;21.20;42.80;;;;;;4983763;28;20177;-87
2022/06/20 14:53:21;;;;;;;;;;;21.20;42.90;;;;;;4985122;28;19910;-87
2022/06/20 14:56:08;;;;;;;;;;;21.30;42.20;;;;;;4986836;28;19910;-87
2022/06/20 14:58:33;;;;;;;;;;;21.40;42.90;;;;;;4981330;28;19916;-84
2022/06/20 15:01:08;;;;;;;;;;;21.50;43.10;;;;;;4985477;28;19909;-85
2022/06/20 15:03:42;;;;;;;;;;;21.30;42.10;;;;;;4989622;28;19909;-87
2022/06/20 15:06:12;;;;;;;;;;;21.10;43.30;;;;;;4986194;28;19974;-84
2022/06/20 15:08:50;;;;;;;;;;;21.00;43.10;;;;;;4999377;28;19897;-89
2022/06/20 15:11:22;;;;;;;;;;;20.90;42.50;;;;;;5012350;28;19915;-87